createdAt,value
2022-12-05T00:01:42.491Z,81.22
2022-12-05T00:04:44.523Z,81.26
2022-12-05T00:07:47.821Z,81.00
2022-12-05T00:10:49.528Z,81.12
2022-12-05T00:13:53.079Z,81.09
2022-12-05T00:16:54.951Z,81.04
2022-12-05T00:19:57.153Z,81.12
2022-12-05T00:22:59.077Z,81.35
2022-12-05T00:26:04.292Z,81.39
2022-12-05T00:29:06.009Z,81.49
2022-12-05T00:32:07.809Z,81.77
2022-12-05T00:35:09.445Z,81.65
2022-12-05T00:38:11.069Z,81.56
2022-12-05T00:41:15.877Z,81.47
2022-12-05T00:44:17.807Z,81.68
2022-12-05T00:47:19.497Z,81.53
2022-12-05T00:50:21.280Z,81.49
2022-12-05T00:53:22.949Z,81.60
2022-12-05T00:56:25.781Z,81.84
2022-12-05T00:59:27.436Z,81.47
2022-12-05T01:02:30.257Z,81.67
2022-12-05T01:05:34.502Z,81.86
2022-12-05T01:08:36.730Z,81.42
2022-12-05T01:11:41.455Z,81.59
2022-12-05T01:14:43.612Z,81.64
2022-12-05T01:17:45.132Z,81.89
2022-12-05T01:20:47.663Z,81.90
2022-12-05T01:23:49.604Z,82.19
2022-12-05T01:26:51.423Z,82.06
2022-12-05T01:29:53.512Z,82.05
2022-12-05T01:32:55.397Z,82.01
2022-12-05T01:35:57.114Z,82.25
2022-12-05T01:38:59.426Z,82.04
2022-12-05T01:42:01.184Z,82.01
2022-12-05T01:45:05.249Z,81.79
2022-12-05T01:48:11.759Z,81.80
2022-12-05T01:51:13.732Z,81.83
2022-12-05T01:54:17.080Z,81.99
2022-12-05T01:57:18.910Z,81.82
2022-12-05T02:00:21.589Z,82.01
2022-12-05T02:03:23.397Z,82.07
2022-12-05T02:06:26.399Z,81.95
2022-12-05T02:09:28.052Z,81.81
2022-12-05T02:12:29.718Z,81.77
2022-12-05T02:15:52.335Z,82.02
2022-12-05T02:19:16.132Z,82.03
2022-12-05T02:22:30.119Z,82.33
2022-12-05T02:25:38.981Z,82.41
2022-12-05T02:29:08.726Z,82.41
2022-12-05T02:32:36.529Z,82.25
2022-12-05T02:35:50.668Z,82.29
2022-12-05T02:39:03.555Z,82.28
2022-12-05T02:42:29.275Z,82.31
2022-12-05T02:45:32.541Z,82.32
2022-12-05T02:48:35.556Z,82.23
2022-12-05T02:51:47.169Z,82.12
2022-12-05T02:54:50.145Z,81.97
2022-12-05T02:57:55.596Z,82.29
2022-12-05T03:00:58.588Z,82.02
2022-12-05T03:04:04.166Z,82.09
2022-12-05T03:07:12.143Z,82.15
2022-12-05T03:10:15.318Z,81.84
2022-12-05T03:13:25.209Z,82.14
2022-12-05T03:16:32.627Z,82.19
2022-12-05T03:19:45.932Z,82.07
2022-12-05T03:23:15.631Z,82.28
2022-12-05T03:26:39.118Z,82.23
2022-12-05T03:29:56.774Z,82.00
2022-12-05T03:33:08.307Z,82.11
2022-12-05T03:36:20.189Z,82.30
2022-12-05T03:39:24.818Z,82.13
2022-12-05T03:42:32.119Z,82.05
2022-12-05T03:45:42.732Z,82.08
2022-12-05T03:48:53.920Z,82.00
2022-12-05T03:51:58.850Z,81.91
2022-12-05T03:55:07.711Z,82.04
2022-12-05T03:58:13.004Z,82.00
2022-12-05T04:01:16.898Z,82.00
2022-12-05T04:04:26.508Z,81.87
2022-12-05T04:07:29.335Z,81.94
2022-12-05T04:10:48.557Z,81.96
2022-12-05T04:13:54.783Z,81.91
2022-12-05T04:17:06.454Z,82.18
2022-12-05T04:20:38.810Z,81.89
2022-12-05T04:23:44.799Z,82.31
2022-12-05T04:26:56.930Z,82.05
2022-12-05T04:30:03.559Z,82.16
2022-12-05T04:33:10.061Z,82.21
2022-12-05T04:36:11.627Z,82.01
2022-12-05T04:39:23.105Z,82.10
2022-12-05T04:42:27.182Z,82.22
2022-12-05T04:45:30.104Z,82.23
2022-12-05T04:48:32.766Z,82.26
2022-12-05T04:51:35.876Z,82.33
2022-12-05T04:54:50.658Z,82.29
2022-12-05T04:58:01.712Z,82.10
2022-12-05T05:01:12.107Z,82.18
2022-12-05T05:04:26.334Z,82.11
2022-12-05T05:07:28.001Z,82.09
2022-12-05T05:10:37.611Z,82.28
2022-12-05T05:13:39.774Z,82.11
2022-12-05T05:16:42.476Z,81.93
2022-12-05T05:19:44.178Z,82.26
2022-12-05T05:22:48.783Z,82.08
2022-12-05T05:25:55.330Z,82.08
2022-12-05T05:28:57.996Z,81.58
2022-12-05T05:31:59.727Z,81.46
2022-12-05T05:35:01.239Z,81.68
2022-12-05T05:38:03.702Z,81.93
2022-12-05T05:41:06.655Z,82.37
2022-12-05T05:44:08.271Z,82.31
2022-12-05T05:47:09.944Z,82.30
2022-12-05T05:50:16.234Z,82.50
2022-12-05T05:53:21.379Z,82.63
2022-12-05T05:56:23.216Z,82.01
2022-12-05T05:59:24.810Z,81.98
2022-12-05T06:02:26.607Z,82.71
2022-12-05T06:05:28.215Z,82.84
2022-12-05T06:08:33.945Z,82.78
2022-12-05T06:11:35.707Z,82.18
2022-12-05T06:14:37.466Z,82.63
2022-12-05T06:17:39.086Z,82.65
2022-12-05T06:20:40.656Z,82.67
2022-12-05T06:23:42.488Z,82.46
2022-12-05T06:26:44.305Z,82.64
2022-12-05T06:29:45.988Z,82.60
2022-12-05T06:32:48.977Z,83.00
2022-12-05T06:36:05.120Z,82.98
2022-12-05T06:39:06.897Z,82.86
2022-12-05T06:42:08.446Z,82.84
2022-12-05T06:45:10.556Z,83.01
2022-12-05T06:48:12.458Z,83.14
2022-12-05T06:51:16.036Z,82.92
2022-12-05T06:54:17.717Z,82.72
2022-12-05T06:57:19.408Z,82.79
2022-12-05T07:00:40.013Z,82.78
2022-12-05T07:03:44.081Z,82.66
2022-12-05T07:06:50.503Z,82.78
2022-12-05T07:09:54.146Z,82.63
2022-12-05T07:12:56.688Z,82.42
2022-12-05T07:15:59.320Z,82.47
2022-12-05T07:19:01.351Z,82.80
2022-12-05T07:22:03.593Z,82.57
2022-12-05T07:25:05.620Z,82.69
2022-12-05T07:28:08.520Z,82.74
2022-12-05T07:31:12.389Z,82.66
2022-12-05T07:34:14.029Z,82.55
2022-12-05T07:37:15.676Z,82.61
2022-12-05T07:40:17.521Z,82.71
2022-12-05T07:43:19.146Z,82.76
2022-12-05T07:46:21.530Z,82.72
2022-12-05T07:49:23.176Z,82.76
2022-12-05T07:52:24.944Z,82.54
2022-12-05T07:55:27.290Z,82.55
2022-12-05T07:58:29.808Z,82.57
2022-12-05T08:01:31.674Z,82.65
2022-12-05T08:04:33.585Z,83.00
2022-12-05T08:07:35.795Z,82.82
2022-12-05T08:10:38.598Z,82.90
2022-12-05T08:13:40.446Z,82.70
2022-12-05T08:16:42.354Z,82.79
2022-12-05T08:19:44.184Z,82.49
2022-12-05T08:22:46.002Z,82.61
2022-12-05T08:25:47.785Z,82.38
2022-12-05T08:28:52.988Z,82.44
2022-12-05T08:31:54.892Z,82.42
2022-12-05T08:34:56.574Z,82.38
2022-12-05T08:37:58.486Z,82.30
2022-12-05T08:41:09.553Z,82.54
2022-12-05T08:44:16.187Z,82.38
2022-12-05T08:47:18.157Z,82.30
2022-12-05T08:50:19.900Z,82.14
2022-12-05T08:53:21.465Z,82.32
2022-12-05T08:56:27.214Z,82.23
2022-12-05T08:59:29.512Z,81.68
2022-12-05T09:02:31.853Z,81.48
2022-12-05T09:05:33.622Z,81.37
2022-12-05T09:08:35.734Z,81.73
2022-12-05T09:11:41.448Z,81.19
2022-12-05T09:14:43.178Z,81.48
2022-12-05T09:17:44.858Z,82.30
2022-12-05T09:20:46.525Z,82.60
2022-12-05T09:23:48.349Z,82.53
2022-12-05T09:26:50.969Z,81.62
2022-12-05T09:29:52.729Z,80.02
2022-12-05T09:32:54.865Z,80.33
2022-12-05T09:35:56.554Z,80.14
2022-12-05T09:39:04.381Z,79.28
2022-12-05T09:42:34.045Z,79.10
2022-12-05T09:45:37.826Z,78.88
2022-12-05T09:48:41.100Z,78.95
2022-12-05T09:51:45.118Z,78.74
2022-12-05T09:54:48.207Z,78.97
2022-12-05T09:57:56.962Z,79.13
2022-12-05T10:01:42.726Z,79.26
2022-12-05T10:05:15.423Z,78.53
2022-12-05T10:08:32.154Z,77.99
2022-12-05T10:12:21.952Z,77.59
2022-12-05T10:15:32.606Z,77.64
2022-12-05T10:18:41.853Z,78.78
2022-12-05T10:22:20.103Z,80.06
2022-12-05T10:25:23.198Z,79.49
2022-12-05T10:28:40.133Z,78.54
2022-12-05T10:31:43.845Z,77.59
2022-12-05T10:34:46.632Z,77.68
2022-12-05T10:37:59.656Z,77.22
2022-12-05T10:41:08.310Z,76.60
2022-12-05T10:44:10.799Z,76.09
2022-12-05T10:47:12.846Z,74.95
2022-12-05T10:50:30.505Z,75.05
2022-12-05T10:53:45.703Z,74.88
2022-12-05T10:56:49.872Z,73.69
2022-12-05T10:59:52.325Z,73.11
2022-12-05T11:02:55.019Z,72.96
2022-12-05T11:06:00.075Z,72.71
2022-12-05T11:09:18.085Z,72.30
2022-12-05T11:12:26.066Z,72.19
2022-12-05T11:15:30.498Z,72.28
2022-12-05T11:18:34.270Z,72.46
2022-12-05T11:21:42.866Z,72.84
2022-12-05T11:24:45.105Z,72.20
2022-12-05T11:27:46.860Z,72.23
2022-12-05T11:30:59.698Z,72.24
2022-12-05T11:34:23.212Z,72.68
2022-12-05T11:37:27.326Z,73.00
2022-12-05T11:40:51.073Z,73.28
2022-12-05T11:43:58.920Z,73.45
2022-12-05T11:47:28.401Z,72.85
2022-12-05T11:51:01.173Z,72.24
2022-12-05T11:54:56.322Z,72.62
2022-12-05T11:58:16.632Z,73.62
2022-12-05T12:01:38.158Z,74.53
2022-12-05T12:05:07.521Z,74.96
2022-12-05T12:08:25.193Z,74.97
2022-12-05T12:11:32.655Z,75.19
2022-12-05T12:14:54.283Z,74.97
2022-12-05T12:18:08.179Z,73.98
2022-12-05T12:21:39.063Z,74.66
2022-12-05T12:24:43.508Z,74.85
2022-12-05T12:28:05.551Z,74.36
2022-12-05T12:31:13.342Z,74.50
2022-12-05T12:34:49.670Z,74.22
2022-12-05T12:38:32.821Z,74.23
2022-12-05T12:41:49.971Z,75.23
2022-12-05T12:45:06.685Z,75.38
2022-12-05T12:48:47.526Z,75.31
2022-12-05T12:51:53.872Z,75.38
2022-12-05T12:55:10.948Z,75.27
2022-12-05T12:58:30.333Z,75.15
2022-12-05T13:01:39.525Z,75.23
2022-12-05T13:04:58.367Z,75.70
2022-12-05T13:08:04.723Z,75.99
2022-12-05T13:11:09.184Z,75.88
2022-12-05T13:14:17.916Z,75.99
2022-12-05T13:17:21.024Z,76.28
2022-12-05T13:20:26.105Z,76.32
2022-12-05T13:23:30.582Z,76.22
2022-12-05T13:26:36.709Z,76.11
2022-12-05T13:29:47.675Z,76.14
2022-12-05T13:32:56.785Z,76.22
2022-12-05T13:36:24.485Z,76.28
2022-12-05T13:39:44.970Z,76.15
2022-12-05T13:42:48.186Z,76.13
2022-12-05T13:46:03.335Z,76.53
2022-12-05T13:49:17.354Z,76.24
2022-12-05T13:52:26.558Z,76.36
2022-12-05T13:55:37.534Z,76.36
2022-12-05T13:58:48.789Z,76.54
2022-12-05T14:01:55.816Z,76.24
2022-12-05T14:04:58.185Z,75.91
2022-12-05T14:08:03.819Z,75.90
2022-12-05T14:11:09.475Z,76.17
2022-12-05T14:14:11.201Z,76.53
2022-12-05T14:17:14.260Z,76.62
2022-12-05T14:20:15.981Z,76.68
2022-12-05T14:23:31.519Z,76.36
2022-12-05T14:26:58.367Z,76.25
2022-12-05T14:30:20.389Z,76.57
2022-12-05T14:33:22.964Z,76.77
2022-12-05T14:36:30.976Z,76.81
2022-12-05T14:39:42.080Z,76.93
2022-12-05T14:42:44.568Z,77.05
2022-12-05T14:45:52.562Z,77.23
2022-12-05T14:48:56.249Z,77.37
2022-12-05T14:51:58.095Z,77.37
2022-12-05T14:55:12.044Z,77.54
2022-12-05T14:58:20.922Z,77.80
2022-12-05T15:01:26.659Z,77.94
2022-12-05T15:04:36.457Z,77.78
2022-12-05T15:07:39.125Z,77.98
2022-12-05T15:10:43.126Z,77.97
2022-12-05T15:13:44.820Z,77.82
2022-12-05T15:16:46.481Z,78.03
2022-12-05T15:19:59.530Z,78.11
2022-12-05T15:23:01.345Z,78.00
2022-12-05T15:26:30.607Z,78.27
2022-12-05T15:29:28.274Z,78.25
2022-12-05T15:32:30.288Z,78.20
2022-12-05T15:35:32.344Z,78.44
2022-12-05T15:38:33.997Z,78.39
2022-12-05T15:41:35.621Z,78.68
2022-12-05T15:44:38.454Z,78.48
2022-12-05T15:47:45.256Z,78.78
2022-12-05T15:50:51.335Z,78.82
2022-12-05T15:53:59.878Z,78.66
2022-12-05T15:57:16.367Z,78.86
2022-12-05T16:00:19.771Z,78.88
2022-12-05T16:03:28.683Z,78.86
2022-12-05T16:06:49.991Z,78.97
2022-12-05T16:09:56.310Z,79.07
2022-12-05T16:13:07.386Z,78.96
2022-12-05T16:16:13.531Z,78.69
2022-12-05T16:19:17.877Z,78.35
2022-12-05T16:22:23.728Z,78.24
2022-12-05T16:25:30.396Z,78.75
2022-12-05T16:28:33.081Z,79.13
2022-12-05T16:31:34.988Z,79.09
2022-12-05T16:34:36.768Z,78.75
2022-12-05T16:37:38.301Z,78.99
2022-12-05T16:40:46.240Z,79.57
2022-12-05T16:43:48.160Z,79.54
2022-12-05T16:46:50.348Z,79.49
2022-12-05T16:49:52.490Z,79.41
2022-12-05T16:53:21.588Z,79.29
2022-12-05T16:56:25.920Z,79.55
2022-12-05T16:59:38.545Z,78.80
2022-12-05T17:02:40.510Z,78.73
2022-12-05T17:05:42.369Z,78.85
2022-12-05T17:08:44.267Z,79.06
2022-12-05T17:11:47.390Z,79.39
2022-12-05T17:14:49.684Z,79.88
2022-12-05T17:17:51.484Z,79.85
2022-12-05T17:20:55.095Z,79.58
2022-12-05T17:23:57.415Z,79.16
2022-12-05T17:26:59.078Z,79.24
2022-12-05T17:30:01.007Z,79.03
2022-12-05T17:33:02.911Z,78.91
2022-12-05T17:36:05.105Z,79.60
2022-12-05T17:39:06.737Z,80.06
2022-12-05T17:42:08.612Z,80.05
2022-12-05T17:45:14.818Z,79.68
2022-12-05T17:48:16.691Z,79.87
2022-12-05T17:51:19.521Z,80.01
2022-12-05T17:54:21.488Z,79.34
2022-12-05T17:57:23.003Z,79.74
2022-12-05T18:00:25.357Z,79.78
2022-12-05T18:03:27.483Z,80.17
2022-12-05T18:06:29.328Z,80.95
2022-12-05T18:09:31.179Z,79.76
2022-12-05T18:12:33.093Z,79.81
2022-12-05T18:15:38.040Z,79.54
2022-12-05T18:18:42.675Z,79.80
2022-12-05T18:21:47.515Z,79.96
2022-12-05T18:24:49.491Z,80.50
2022-12-05T18:27:51.323Z,80.57
2022-12-05T18:31:10.636Z,80.28
2022-12-05T18:34:12.612Z,80.50
2022-12-05T18:37:16.394Z,80.38
2022-12-05T18:40:18.164Z,80.04
2022-12-05T18:43:20.024Z,80.73
2022-12-05T18:46:21.730Z,80.59
2022-12-05T18:49:24.157Z,80.93
2022-12-05T18:52:25.831Z,80.28
2022-12-05T18:55:57.999Z,80.40
2022-12-05T18:58:59.050Z,80.88
2022-12-05T19:02:01.100Z,81.08
2022-12-05T19:05:03.265Z,81.01
2022-12-05T19:08:05.201Z,80.29
2022-12-05T19:11:07.392Z,80.79
2022-12-05T19:14:10.401Z,80.98
2022-12-05T19:17:12.178Z,80.84
2022-12-05T19:20:14.028Z,80.67
2022-12-05T19:23:15.523Z,80.61
2022-12-05T19:26:17.355Z,80.60
2022-12-05T19:29:19.005Z,80.52
2022-12-05T19:32:20.608Z,80.85
2022-12-05T19:35:22.244Z,80.60
2022-12-05T19:38:24.085Z,81.05
2022-12-05T19:41:26.843Z,81.21
2022-12-05T19:44:28.536Z,80.62
2022-12-05T19:47:30.122Z,80.96
2022-12-05T19:50:32.893Z,81.06
2022-12-05T19:53:37.503Z,80.67
2022-12-05T19:56:39.917Z,80.61
2022-12-05T19:59:41.580Z,80.88
2022-12-05T20:02:45.716Z,81.21
2022-12-05T20:05:57.984Z,81.08
2022-12-05T20:08:59.884Z,81.26
2022-12-05T20:12:04.231Z,81.13
2022-12-05T20:15:06.568Z,81.37
2022-12-05T20:18:08.153Z,81.49
2022-12-05T20:21:14.390Z,81.07
2022-12-05T20:24:16.073Z,81.31
2022-12-05T20:27:18.054Z,80.86
2022-12-05T20:30:19.643Z,81.11
2022-12-05T20:33:21.338Z,80.94
2022-12-05T20:36:26.042Z,80.91
2022-12-05T20:39:29.602Z,81.36
2022-12-05T20:42:31.313Z,81.95
2022-12-05T20:45:33.845Z,81.16
2022-12-05T20:48:36.017Z,80.68
2022-12-05T20:51:41.060Z,80.69
2022-12-05T20:54:42.945Z,81.10
2022-12-05T20:57:44.773Z,81.10
2022-12-05T21:00:46.491Z,81.30
2022-12-05T21:03:50.504Z,81.24
2022-12-05T21:06:52.216Z,81.08
2022-12-05T21:09:53.895Z,81.36
2022-12-05T21:12:56.012Z,81.26
2022-12-05T21:15:57.906Z,81.28
2022-12-05T21:19:00.115Z,81.33
2022-12-05T21:22:01.889Z,81.46
2022-12-05T21:25:03.631Z,81.49
2022-12-05T21:28:05.388Z,81.33
2022-12-05T21:31:08.869Z,81.44
2022-12-05T21:34:20.593Z,81.42
2022-12-05T21:37:22.520Z,81.25
2022-12-05T21:40:24.242Z,81.44
2022-12-05T21:43:25.849Z,82.27
2022-12-05T21:46:27.884Z,82.76
2022-12-05T21:49:29.622Z,81.92
2022-12-05T21:52:33.125Z,81.28
2022-12-05T21:55:35.293Z,81.51
2022-12-05T21:58:42.442Z,81.72
2022-12-05T22:01:44.493Z,81.38
2022-12-05T22:04:46.316Z,82.03
2022-12-05T22:07:48.058Z,82.53
2022-12-05T22:10:49.733Z,82.60
2022-12-05T22:13:52.428Z,82.51
2022-12-05T22:16:54.217Z,82.40
2022-12-05T22:19:57.550Z,82.40
2022-12-05T22:22:59.348Z,82.16
2022-12-05T22:26:03.547Z,82.02
2022-12-05T22:29:05.262Z,81.99
2022-12-05T22:32:07.168Z,82.04
2022-12-05T22:35:13.882Z,81.86
2022-12-05T22:38:16.518Z,81.97
2022-12-05T22:41:21.187Z,82.02
2022-12-05T22:44:22.996Z,81.87
2022-12-05T22:47:24.622Z,82.14
2022-12-05T22:50:26.581Z,82.23
2022-12-05T22:53:28.792Z,81.73
2022-12-05T22:56:30.518Z,82.13
2022-12-05T22:59:32.031Z,81.90
2022-12-05T23:02:33.802Z,82.07
2022-12-05T23:05:39.059Z,82.19
2022-12-05T23:08:42.607Z,81.94
2022-12-05T23:11:44.302Z,81.88
2022-12-05T23:14:45.882Z,82.28
2022-12-05T23:17:48.377Z,82.32
2022-12-05T23:20:50.455Z,82.20
2022-12-05T23:23:54.593Z,82.18
2022-12-05T23:26:56.252Z,81.75
2022-12-05T23:29:58.138Z,81.99
2022-12-05T23:33:00.086Z,82.12
2022-12-05T23:36:01.867Z,82.19
2022-12-05T23:39:04.236Z,82.22
2022-12-05T23:42:09.607Z,82.33
2022-12-05T23:45:14.124Z,82.13
2022-12-05T23:48:15.741Z,82.22
2022-12-05T23:51:25.373Z,82.03
2022-12-05T23:54:27.076Z,81.97
2022-12-05T23:57:28.772Z,81.76
